createdAt,value
2017-11-08T00:00:12.198Z,7.71
2017-11-08T00:01:12.195Z,7.74
2017-11-08T00:02:12.183Z,7.68
2017-11-08T00:03:12.173Z,7.68
2017-11-08T00:04:12.166Z,7.80
2017-11-08T00:05:12.174Z,7.77
2017-11-08T00:06:12.145Z,7.66
2017-11-08T00:07:12.139Z,7.69
2017-11-08T00:08:12.124Z,7.74
2017-11-08T00:09:12.115Z,7.73
2017-11-08T00:10:12.106Z,7.84
2017-11-08T00:11:12.117Z,7.71
2017-11-08T00:12:12.083Z,7.76
2017-11-08T00:13:12.070Z,7.69
2017-11-08T00:14:12.061Z,7.77
2017-11-08T00:15:12.051Z,7.74
2017-11-08T00:16:12.042Z,7.71
2017-11-08T00:17:12.044Z,7.76
2017-11-08T00:18:12.017Z,7.74
2017-11-08T00:19:12.027Z,7.69
2017-11-08T00:20:12.008Z,7.68
2017-11-08T00:21:11.996Z,7.81
2017-11-08T00:22:12.824Z,7.76
2017-11-08T00:23:11.974Z,7.74
2017-11-08T00:24:11.988Z,7.78
2017-11-08T00:25:11.954Z,7.74
2017-11-08T00:26:11.945Z,7.78
2017-11-08T00:27:11.935Z,7.76
2017-11-08T00:28:11.917Z,7.73
2017-11-08T00:29:11.909Z,7.76
2017-11-08T00:30:11.907Z,7.76
2017-11-08T00:31:11.880Z,7.73
2017-11-08T00:32:11.877Z,7.78
2017-11-08T00:33:11.867Z,7.74
2017-11-08T00:34:12.826Z,7.71
2017-11-08T00:35:11.845Z,7.71
2017-11-08T00:36:11.840Z,7.74
2017-11-08T00:37:11.829Z,7.71
2017-11-08T00:38:11.817Z,7.71
2017-11-08T00:39:11.808Z,7.66
2017-11-08T00:40:11.811Z,7.71
2017-11-08T00:41:11.794Z,7.69
2017-11-08T00:42:11.777Z,7.74
2017-11-08T00:43:11.765Z,7.74
2017-11-08T00:44:11.770Z,7.76
2017-11-08T00:45:11.744Z,7.69
2017-11-08T00:46:11.747Z,7.77
2017-11-08T00:47:11.727Z,7.76
2017-11-08T00:48:11.714Z,7.77
2017-11-08T00:49:11.702Z,7.76
2017-11-08T00:50:11.689Z,7.74
2017-11-08T00:51:11.683Z,7.69
2017-11-08T00:52:12.337Z,7.81
2017-11-08T00:53:11.671Z,7.86
2017-11-08T00:54:11.660Z,7.78
2017-11-08T00:55:11.643Z,7.91
2017-11-08T00:56:11.636Z,7.80
2017-11-08T00:57:11.622Z,7.80
2017-11-08T00:58:14.336Z,7.78
2017-11-08T00:59:11.616Z,7.81
2017-11-08T01:00:11.590Z,7.94
2017-11-08T01:01:11.588Z,7.84
2017-11-08T01:02:11.570Z,7.83
2017-11-08T01:03:11.558Z,7.81
2017-11-08T01:04:12.338Z,7.80
2017-11-08T01:05:11.542Z,7.95
2017-11-08T01:06:11.546Z,7.91
2017-11-08T01:07:11.517Z,7.91
2017-11-08T01:08:11.511Z,7.99
2017-11-08T01:09:11.502Z,7.94
2017-11-08T01:10:11.487Z,7.86
2017-11-08T01:11:12.343Z,7.86
2017-11-08T01:12:11.468Z,7.83
2017-11-08T01:13:11.457Z,7.81
2017-11-08T01:14:11.453Z,7.83
2017-11-08T01:15:11.434Z,7.84
2017-11-08T01:16:11.436Z,7.78
2017-11-08T01:17:11.420Z,7.87
2017-11-08T01:18:11.402Z,7.86
2017-11-08T01:19:11.400Z,7.84
2017-11-08T01:20:11.396Z,7.87
2017-11-08T01:21:11.379Z,7.81
2017-11-08T01:22:11.389Z,7.80
2017-11-08T01:23:11.360Z,7.86
2017-11-08T01:24:11.347Z,7.87
2017-11-08T01:25:11.361Z,7.83
2017-11-08T01:26:11.324Z,7.80
2017-11-08T01:27:11.316Z,7.84
2017-11-08T01:28:11.304Z,7.83
2017-11-08T01:29:11.296Z,7.83
2017-11-08T01:30:11.298Z,7.87
2017-11-08T01:31:11.276Z,7.88
2017-11-08T01:32:11.267Z,7.84
2017-11-08T01:33:11.259Z,7.86
2017-11-08T01:34:11.853Z,7.88
2017-11-08T01:35:11.236Z,7.81
2017-11-08T01:36:11.222Z,7.87
2017-11-08T01:37:11.216Z,7.77
2017-11-08T01:38:11.204Z,7.84
2017-11-08T01:39:11.212Z,7.80
2017-11-08T01:40:11.857Z,7.87
2017-11-08T01:41:11.180Z,7.76
2017-11-08T01:42:11.160Z,7.80
2017-11-08T01:43:11.153Z,7.69
2017-11-08T01:44:11.141Z,7.83
2017-11-08T01:45:11.133Z,7.76
2017-11-08T01:46:11.120Z,7.73
2017-11-08T01:47:11.111Z,7.71
2017-11-08T01:48:11.103Z,7.71
2017-11-08T01:49:11.093Z,7.74
2017-11-08T01:50:11.085Z,7.69
2017-11-08T01:51:11.078Z,7.68
2017-11-08T01:52:11.060Z,7.74
2017-11-08T01:53:11.050Z,7.76
2017-11-08T01:54:11.044Z,7.71
2017-11-08T01:55:11.032Z,7.76
2017-11-08T01:56:11.031Z,7.77
2017-11-08T01:57:11.021Z,7.76
2017-11-08T01:58:10.989Z,7.78
2017-11-08T01:59:10.980Z,7.73
2017-11-08T02:00:10.982Z,7.73
2017-11-08T02:01:10.967Z,7.74
2017-11-08T02:02:10.955Z,7.69
2017-11-08T02:03:10.951Z,7.69
2017-11-08T02:04:10.933Z,7.77
2017-11-08T02:05:10.927Z,7.76
2017-11-08T02:06:10.917Z,7.78
2017-11-08T02:07:10.913Z,7.83
2017-11-08T02:08:10.896Z,7.78
2017-11-08T02:09:10.892Z,7.74
2017-11-08T02:10:10.875Z,7.81
2017-11-08T02:11:10.868Z,7.74
2017-11-08T02:12:10.857Z,7.74
2017-11-08T02:13:10.862Z,7.71
2017-11-08T02:14:10.834Z,7.83
2017-11-08T02:15:10.821Z,7.83
2017-11-08T02:16:10.816Z,7.71
2017-11-08T02:17:10.806Z,7.77
2017-11-08T02:18:10.794Z,7.69
2017-11-08T02:19:10.786Z,7.73
2017-11-08T02:20:10.785Z,7.69
2017-11-08T02:21:10.764Z,7.73
2017-11-08T02:22:10.750Z,7.74
2017-11-08T02:23:10.742Z,7.73
2017-11-08T02:24:10.729Z,7.69
2017-11-08T02:25:10.720Z,7.68
2017-11-08T02:26:10.711Z,7.73
2017-11-08T02:27:11.368Z,7.73
2017-11-08T02:28:10.695Z,7.83
2017-11-08T02:29:10.683Z,7.77
2017-11-08T02:30:10.674Z,7.69
2017-11-08T02:31:10.663Z,7.73
2017-11-08T02:32:10.670Z,7.74
2017-11-08T02:33:10.641Z,7.66
2017-11-08T02:34:10.631Z,7.74
2017-11-08T02:35:10.621Z,7.74
2017-11-08T02:36:10.630Z,7.73
2017-11-08T02:37:10.598Z,7.68
2017-11-08T02:38:10.589Z,7.69
2017-11-08T02:39:10.578Z,7.68
2017-11-08T02:40:10.569Z,7.71
2017-11-08T02:41:10.561Z,7.69
2017-11-08T02:42:10.548Z,7.76
2017-11-08T02:43:10.537Z,7.71
2017-11-08T02:44:10.529Z,7.73
2017-11-08T02:45:10.520Z,7.74
2017-11-08T02:46:10.513Z,7.74
2017-11-08T02:47:10.499Z,7.74
2017-11-08T02:48:10.489Z,7.68
2017-11-08T02:49:10.474Z,7.69
2017-11-08T02:50:10.468Z,7.69
2017-11-08T02:51:10.456Z,7.77
2017-11-08T02:52:10.443Z,7.73
2017-11-08T02:53:10.452Z,7.68
2017-11-08T02:54:10.424Z,7.69
2017-11-08T02:55:10.413Z,7.76
2017-11-08T02:56:10.418Z,7.74
2017-11-08T02:57:11.375Z,7.78
2017-11-08T02:58:10.388Z,7.68
2017-11-08T02:59:10.373Z,7.71
2017-11-08T03:00:10.368Z,7.69
2017-11-08T03:01:10.351Z,7.76
2017-11-08T03:02:10.345Z,7.71
2017-11-08T03:03:10.337Z,7.73
2017-11-08T03:04:10.325Z,7.66
2017-11-08T03:05:10.317Z,7.73
2017-11-08T03:06:10.309Z,7.76
2017-11-08T03:07:10.293Z,7.77
2017-11-08T03:08:10.880Z,7.73
2017-11-08T03:09:10.269Z,7.78
2017-11-08T03:10:10.264Z,7.76
2017-11-08T03:11:10.249Z,7.71
2017-11-08T03:12:10.239Z,7.78
2017-11-08T03:13:10.229Z,7.71
2017-11-08T03:14:10.884Z,7.69
2017-11-08T03:15:10.212Z,7.69
2017-11-08T03:16:10.201Z,7.68
2017-11-08T03:17:10.188Z,7.77
2017-11-08T03:18:10.179Z,7.77
2017-11-08T03:19:12.886Z,7.68
2017-11-08T03:20:10.153Z,7.71
2017-11-08T03:21:10.145Z,7.76
2017-11-08T03:22:10.136Z,7.68
2017-11-08T03:23:10.124Z,7.73
2017-11-08T03:24:10.120Z,7.76
2017-11-08T03:25:10.115Z,7.71
2017-11-08T03:26:10.099Z,7.77
2017-11-08T03:27:10.085Z,7.74
2017-11-08T03:28:10.084Z,7.77
2017-11-08T03:29:10.068Z,7.68
2017-11-08T03:30:10.057Z,7.66
2017-11-08T03:31:10.893Z,7.69
2017-11-08T03:32:10.046Z,7.64
2017-11-08T03:33:10.889Z,7.74
2017-11-08T03:34:10.010Z,7.68
2017-11-08T03:35:10.003Z,7.68
2017-11-08T03:36:10.007Z,7.69
2017-11-08T03:37:09.987Z,7.71
2017-11-08T03:38:09.972Z,7.73
2017-11-08T03:39:09.978Z,7.66
2017-11-08T03:40:09.954Z,7.68
2017-11-08T03:41:09.944Z,7.76
2017-11-08T03:42:09.934Z,7.73
2017-11-08T03:43:09.918Z,7.74
2017-11-08T03:44:10.896Z,7.69
2017-11-08T03:45:09.902Z,7.73
2017-11-08T03:46:09.889Z,7.62
2017-11-08T03:47:09.879Z,7.74
2017-11-08T03:48:09.867Z,7.77
2017-11-08T03:49:10.393Z,7.74
2017-11-08T03:50:09.848Z,7.83
2017-11-08T03:51:09.839Z,7.68
2017-11-08T03:52:09.834Z,7.73
2017-11-08T03:53:09.820Z,7.71
2017-11-08T03:54:09.810Z,7.71
2017-11-08T03:55:09.804Z,7.73
2017-11-08T03:56:10.395Z,7.71
2017-11-08T03:57:09.779Z,7.71
2017-11-08T03:58:09.781Z,7.76
2017-11-08T03:59:09.755Z,7.73
2017-11-08T04:00:09.749Z,7.77
2017-11-08T04:01:09.744Z,7.71
2017-11-08T04:02:09.724Z,7.77
2017-11-08T04:03:09.717Z,7.77
2017-11-08T04:04:09.727Z,7.80
2017-11-08T04:05:09.695Z,7.71
2017-11-08T04:06:09.687Z,7.69
2017-11-08T04:07:09.682Z,7.73
2017-11-08T04:08:09.666Z,7.71
2017-11-08T04:09:09.653Z,7.73
2017-11-08T04:10:09.640Z,7.66
2017-11-08T04:11:09.633Z,7.71
2017-11-08T04:12:10.405Z,7.77
2017-11-08T04:13:09.618Z,7.80
2017-11-08T04:14:09.605Z,7.74
2017-11-08T04:15:09.596Z,7.73
2017-11-08T04:16:09.581Z,7.77
2017-11-08T04:17:09.575Z,7.76
2017-11-08T04:18:09.565Z,7.77
2017-11-08T04:19:09.555Z,7.71
2017-11-08T04:20:09.542Z,7.78
2017-11-08T04:21:09.531Z,7.73
2017-11-08T04:22:09.522Z,7.83
2017-11-08T04:23:09.513Z,7.76
2017-11-08T04:24:09.524Z,7.74
2017-11-08T04:25:09.499Z,7.71
2017-11-08T04:26:09.486Z,7.76
2017-11-08T04:27:09.469Z,7.73
2017-11-08T04:28:09.457Z,7.77
2017-11-08T04:29:09.454Z,7.83
2017-11-08T04:30:09.437Z,7.78
2017-11-08T04:31:09.430Z,7.74
2017-11-08T04:32:09.426Z,7.81
2017-11-08T04:33:09.407Z,7.77
2017-11-08T04:34:09.395Z,7.86
2017-11-08T04:35:09.379Z,7.81
2017-11-08T04:36:09.381Z,7.81
2017-11-08T04:37:09.369Z,7.86
2017-11-08T04:38:09.367Z,7.81
2017-11-08T04:39:09.350Z,7.78
2017-11-08T04:40:09.338Z,7.91
2017-11-08T04:41:09.328Z,7.80
2017-11-08T04:42:09.320Z,7.81
2017-11-08T04:43:09.309Z,7.81
2017-11-08T04:44:09.913Z,7.83
2017-11-08T04:45:09.299Z,7.80
2017-11-08T04:46:09.274Z,7.80
2017-11-08T04:47:09.264Z,7.81
2017-11-08T04:48:09.261Z,7.81
2017-11-08T04:49:09.243Z,7.88
2017-11-08T04:50:09.910Z,7.86
2017-11-08T04:51:09.224Z,7.81
2017-11-08T04:52:09.217Z,7.84
2017-11-08T04:53:09.207Z,7.78
2017-11-08T04:54:09.206Z,7.84
2017-11-08T04:55:09.186Z,7.86
2017-11-08T04:56:09.177Z,7.83
2017-11-08T04:57:09.171Z,7.87
2017-11-08T04:58:09.155Z,7.84
2017-11-08T04:59:09.159Z,7.94
2017-11-08T05:00:09.148Z,7.77
2017-11-08T05:01:09.125Z,7.84
2017-11-08T05:02:09.113Z,7.80
2017-11-08T05:03:09.103Z,7.83
2017-11-08T05:04:09.093Z,7.92
2017-11-08T05:05:09.082Z,7.81
2017-11-08T05:06:09.110Z,7.83
2017-11-08T05:07:09.060Z,7.83
2017-11-08T05:08:09.922Z,7.87
2017-11-08T05:09:09.047Z,7.94
2017-11-08T05:10:09.033Z,7.91
2017-11-08T05:11:09.018Z,7.92
2017-11-08T05:12:09.015Z,7.95
2017-11-08T05:13:09.006Z,7.84
2017-11-08T05:14:09.931Z,7.95
2017-11-08T05:15:08.986Z,7.87
2017-11-08T05:16:08.973Z,7.86
2017-11-08T05:17:08.992Z,7.81
2017-11-08T05:18:08.949Z,7.84
2017-11-08T05:19:08.942Z,7.87
2017-11-08T05:20:08.925Z,7.83
2017-11-08T05:21:08.925Z,7.83
2017-11-08T05:22:08.915Z,7.86
2017-11-08T05:23:09.434Z,7.87
2017-11-08T05:24:08.895Z,7.86
2017-11-08T05:25:08.881Z,7.94
2017-11-08T05:26:09.451Z,7.94
2017-11-08T05:27:08.877Z,7.87
2017-11-08T05:28:08.849Z,7.92
2017-11-08T05:29:08.839Z,7.83
2017-11-08T05:30:08.827Z,7.88
2017-11-08T05:31:08.814Z,7.92
2017-11-08T05:32:08.811Z,7.94
2017-11-08T05:33:08.804Z,7.94
2017-11-08T05:34:08.794Z,7.96
2017-11-08T05:35:08.783Z,7.99
2017-11-08T05:36:08.776Z,8.02
2017-11-08T05:37:08.766Z,8.05
2017-11-08T05:38:08.767Z,8.05
2017-11-08T05:39:08.749Z,8.10
2017-11-08T05:40:08.734Z,8.14
2017-11-08T05:41:08.724Z,8.13
2017-11-08T05:42:08.731Z,8.19
2017-11-08T05:43:09.442Z,8.12
2017-11-08T05:44:08.692Z,8.13
2017-11-08T05:45:08.686Z,8.24
2017-11-08T05:46:08.688Z,8.24
2017-11-08T05:47:08.664Z,8.21
2017-11-08T05:48:08.662Z,8.23
2017-11-08T05:49:08.636Z,8.21
2017-11-08T05:50:08.634Z,8.26
2017-11-08T05:51:08.623Z,8.26
2017-11-08T05:52:08.613Z,8.32
2017-11-08T05:53:08.604Z,8.26
2017-11-08T05:54:08.591Z,8.31
2017-11-08T05:55:08.583Z,8.24
2017-11-08T05:56:08.584Z,8.26
2017-11-08T05:57:08.556Z,8.32
2017-11-08T05:58:08.548Z,8.28
2017-11-08T05:59:09.442Z,8.23
2017-11-08T06:00:08.527Z,8.17
2017-11-08T06:01:09.665Z,8.20
2017-11-08T06:02:08.505Z,8.14
2017-11-08T06:03:08.498Z,8.12
2017-11-08T06:04:08.492Z,8.14
2017-11-08T06:05:08.482Z,8.14
2017-11-08T06:06:08.472Z,8.06
2017-11-08T06:07:08.455Z,8.10
2017-11-08T06:08:08.450Z,8.16
2017-11-08T06:09:08.438Z,8.06
2017-11-08T06:10:08.498Z,8.05
2017-11-08T06:11:08.422Z,8.05
2017-11-08T06:12:08.410Z,8.10
2017-11-08T06:13:08.403Z,8.05
2017-11-08T06:14:08.389Z,8.04
2017-11-08T06:15:08.373Z,8.14
2017-11-08T06:16:08.374Z,8.04
2017-11-08T06:17:08.949Z,8.16
2017-11-08T06:18:08.357Z,8.05
2017-11-08T06:19:08.338Z,8.02
2017-11-08T06:20:08.334Z,8.05
2017-11-08T06:21:08.325Z,8.05
2017-11-08T06:22:08.311Z,8.02
2017-11-08T06:23:08.949Z,8.05
2017-11-08T06:24:08.287Z,8.13
2017-11-08T06:25:08.282Z,8.02
2017-11-08T06:26:08.272Z,8.13
2017-11-08T06:27:08.276Z,8.09
2017-11-08T06:28:08.250Z,8.21
2017-11-08T06:29:08.238Z,8.04
2017-11-08T06:30:08.228Z,8.04
2017-11-08T06:31:08.216Z,8.02
2017-11-08T06:32:08.206Z,8.09
2017-11-08T06:33:08.202Z,8.09
2017-11-08T06:34:08.193Z,8.04
2017-11-08T06:35:08.182Z,8.13
2017-11-08T06:36:08.168Z,8.04
2017-11-08T06:37:08.957Z,8.06
2017-11-08T06:38:08.154Z,8.04
2017-11-08T06:39:08.141Z,8.06
2017-11-08T06:40:08.955Z,8.04
2017-11-08T06:41:08.962Z,8.05
2017-11-08T06:42:08.110Z,8.09
2017-11-08T06:43:08.103Z,7.98
2017-11-08T06:44:08.086Z,8.04
2017-11-08T06:45:08.085Z,8.04
2017-11-08T06:46:08.073Z,8.06
2017-11-08T06:47:09.961Z,8.04
2017-11-08T06:48:08.057Z,8.05
2017-11-08T06:49:08.051Z,8.02
2017-11-08T06:50:08.041Z,8.10
2017-11-08T06:51:08.026Z,8.06
2017-11-08T06:52:08.014Z,8.02
2017-11-08T06:53:08.000Z,8.05
2017-11-08T06:54:07.992Z,8.13
2017-11-08T06:55:07.983Z,8.09
2017-11-08T06:56:07.987Z,8.04
2017-11-08T06:57:07.957Z,8.13
2017-11-08T06:58:07.947Z,8.02
2017-11-08T06:59:07.944Z,8.05
2017-11-08T07:00:07.937Z,8.05
2017-11-08T07:01:07.922Z,8.02
2017-11-08T07:02:07.919Z,8.13
2017-11-08T07:03:07.908Z,8.05
2017-11-08T07:04:07.889Z,8.12
2017-11-08T07:05:07.888Z,8.10
2017-11-08T07:06:07.871Z,8.13
2017-11-08T07:07:07.861Z,8.05
2017-11-08T07:08:07.849Z,8.01
2017-11-08T07:09:07.839Z,8.12
2017-11-08T07:10:07.827Z,8.14
2017-11-08T07:11:08.462Z,8.17
2017-11-08T07:12:07.814Z,8.24
2017-11-08T07:13:07.800Z,8.23
2017-11-08T07:14:07.789Z,8.26
2017-11-08T07:15:07.788Z,8.23
2017-11-08T07:16:07.777Z,8.28
2017-11-08T07:17:07.768Z,8.32
2017-11-08T07:18:07.762Z,8.32
2017-11-08T07:19:07.740Z,8.38
2017-11-08T07:20:07.733Z,8.34
2017-11-08T07:21:07.724Z,8.44
2017-11-08T07:22:07.710Z,8.41
2017-11-08T07:23:07.715Z,8.41
2017-11-08T07:24:07.691Z,8.47
2017-11-08T07:25:07.685Z,8.32
2017-11-08T07:26:07.668Z,8.32
2017-11-08T07:27:07.658Z,8.37
2017-11-08T07:28:07.651Z,8.39
2017-11-08T07:29:07.646Z,8.39
2017-11-08T07:30:07.629Z,8.38
2017-11-08T07:31:08.480Z,8.32
2017-11-08T07:32:07.624Z,8.49
2017-11-08T07:33:07.606Z,8.39
2017-11-08T07:34:07.593Z,8.37
2017-11-08T07:35:07.588Z,8.37
2017-11-08T07:36:07.572Z,8.44
2017-11-08T07:37:07.561Z,8.34
2017-11-08T07:38:07.549Z,8.34
2017-11-08T07:39:07.542Z,8.35
2017-11-08T07:40:07.551Z,8.37
2017-11-08T07:41:07.525Z,8.34
2017-11-08T07:42:07.516Z,8.37
2017-11-08T07:43:07.547Z,8.38
2017-11-08T07:44:07.498Z,8.47
2017-11-08T07:45:07.487Z,8.34
2017-11-08T07:46:07.491Z,8.42
2017-11-08T07:47:09.982Z,8.34
2017-11-08T07:48:07.451Z,8.37
2017-11-08T07:49:07.445Z,8.35
2017-11-08T07:50:07.432Z,8.38
2017-11-08T07:51:07.427Z,8.35
2017-11-08T07:52:07.421Z,8.49
2017-11-08T07:53:07.410Z,8.39
2017-11-08T07:54:07.435Z,8.44
2017-11-08T07:55:07.386Z,8.47
2017-11-08T07:56:07.982Z,8.35
2017-11-08T07:57:07.365Z,8.46
2017-11-08T07:58:07.355Z,8.39
2017-11-08T07:59:07.347Z,8.47
2017-11-08T08:00:07.342Z,8.50
2017-11-08T08:01:07.336Z,8.50
2017-11-08T08:02:07.314Z,8.47
2017-11-08T08:03:07.311Z,8.39
2017-11-08T08:04:07.294Z,8.42
2017-11-08T08:05:07.284Z,8.39
2017-11-08T08:06:07.277Z,8.47
2017-11-08T08:07:07.274Z,8.46
2017-11-08T08:08:07.260Z,8.44
2017-11-08T08:09:07.447Z,8.47
2017-11-08T08:10:07.254Z,8.47
2017-11-08T08:11:08.161Z,8.49
2017-11-08T08:12:07.266Z,8.46
2017-11-08T08:13:08.175Z,8.42
2017-11-08T08:14:07.227Z,8.47
2017-11-08T08:15:07.505Z,8.42
2017-11-08T08:16:07.179Z,8.49
2017-11-08T08:17:07.331Z,8.44
2017-11-08T08:18:07.734Z,8.53
2017-11-08T08:19:07.157Z,8.52
2017-11-08T08:20:07.143Z,8.56
2017-11-08T08:21:07.218Z,8.52
2017-11-08T08:22:07.169Z,8.55
2017-11-08T08:23:07.116Z,8.53
2017-11-08T08:24:07.118Z,8.50
2017-11-08T08:25:07.120Z,8.56
2017-11-08T08:26:07.089Z,8.60
2017-11-08T08:27:07.208Z,8.50
2017-11-08T08:28:07.085Z,8.57
2017-11-08T08:29:07.148Z,8.56
2017-11-08T08:30:07.084Z,8.49
2017-11-08T08:31:07.043Z,8.56
2017-11-08T08:32:07.082Z,8.52
2017-11-08T08:33:07.071Z,8.57
2017-11-08T08:34:07.017Z,8.56
2017-11-08T08:35:07.006Z,8.57
2017-11-08T08:36:07.002Z,8.57
2017-11-08T08:37:06.980Z,8.56
2017-11-08T08:38:06.966Z,8.70
2017-11-08T08:39:08.440Z,8.60
2017-11-08T08:40:06.954Z,8.68
2017-11-08T08:41:06.945Z,8.60
2017-11-08T08:42:07.305Z,8.60
2017-11-08T08:43:06.924Z,8.59
2017-11-08T08:44:06.919Z,8.55
2017-11-08T08:45:08.016Z,8.59
2017-11-08T08:46:07.124Z,8.59
2017-11-08T08:47:07.017Z,8.62
2017-11-08T08:48:06.891Z,8.65
2017-11-08T08:49:06.968Z,8.67
2017-11-08T08:50:07.035Z,8.63
2017-11-08T08:51:07.727Z,8.67
2017-11-08T08:52:06.839Z,8.67
2017-11-08T08:53:06.857Z,8.67
2017-11-08T08:54:06.817Z,8.72
2017-11-08T08:55:06.823Z,8.65
2017-11-08T08:56:06.802Z,8.72
2017-11-08T08:57:07.503Z,8.65
2017-11-08T08:58:07.972Z,8.75
2017-11-08T08:59:06.781Z,8.80
2017-11-08T09:00:07.340Z,8.77
2017-11-08T09:01:07.509Z,8.83
2017-11-08T09:02:06.915Z,8.86
2017-11-08T09:03:06.741Z,8.83
2017-11-08T09:04:07.553Z,8.81
2017-11-08T09:05:06.721Z,8.81
2017-11-08T09:06:06.712Z,8.86
2017-11-08T09:07:06.717Z,8.89
2017-11-08T09:08:07.225Z,8.83
2017-11-08T09:09:06.678Z,8.85
2017-11-08T09:10:06.668Z,8.83
2017-11-08T09:11:06.664Z,8.81
2017-11-08T09:12:06.652Z,8.80
2017-11-08T09:13:07.204Z,8.78
2017-11-08T09:14:06.638Z,8.92
2017-11-08T09:15:06.621Z,8.75
2017-11-08T09:16:06.620Z,8.86
2017-11-08T09:17:06.610Z,8.86
2017-11-08T09:18:07.293Z,8.90
2017-11-08T09:19:07.239Z,8.92
2017-11-08T09:20:06.592Z,9.03
2017-11-08T09:21:08.269Z,8.96
2017-11-08T09:22:06.571Z,9.01
2017-11-08T09:23:06.556Z,8.93
2017-11-08T09:24:06.978Z,8.96
2017-11-08T09:25:06.672Z,8.99
2017-11-08T09:26:06.533Z,8.96
2017-11-08T09:27:07.296Z,8.99
2017-11-08T09:28:06.573Z,9.08
2017-11-08T09:29:06.494Z,9.04
2017-11-08T09:30:07.482Z,9.06
2017-11-08T09:31:06.597Z,9.03
2017-11-08T09:32:07.663Z,9.12
2017-11-08T09:33:06.466Z,9.08
2017-11-08T09:34:06.461Z,9.09
2017-11-08T09:35:06.446Z,9.08
2017-11-08T09:36:07.362Z,9.12
2017-11-08T09:37:06.427Z,9.09
2017-11-08T09:38:06.736Z,9.14
2017-11-08T09:39:06.420Z,9.14
2017-11-08T09:40:07.813Z,9.15
2017-11-08T09:41:07.862Z,9.09
2017-11-08T09:42:06.423Z,9.15
2017-11-08T09:43:06.855Z,9.14
2017-11-08T09:44:06.363Z,9.12
2017-11-08T09:45:06.614Z,9.06
2017-11-08T09:46:06.391Z,9.11
2017-11-08T09:47:07.373Z,9.16
2017-11-08T09:48:06.804Z,9.23
2017-11-08T09:49:06.308Z,9.06
2017-11-08T09:50:06.308Z,9.12
2017-11-08T09:51:07.009Z,9.15
2017-11-08T09:52:06.303Z,9.22
2017-11-08T09:53:07.065Z,9.15
2017-11-08T09:54:06.274Z,9.14
2017-11-08T09:55:06.263Z,9.14
2017-11-08T09:56:06.259Z,9.16
2017-11-08T09:57:06.250Z,9.27
2017-11-08T09:58:06.250Z,9.24
2017-11-08T09:59:06.232Z,9.22
2017-11-08T10:00:06.225Z,9.24
2017-11-08T10:01:06.213Z,9.29
2017-11-08T10:02:06.205Z,9.27
2017-11-08T10:03:06.194Z,9.30
2017-11-08T10:04:07.057Z,9.34
2017-11-08T10:05:06.173Z,9.34
2017-11-08T10:06:06.166Z,9.27
2017-11-08T10:07:06.162Z,9.34
2017-11-08T10:08:06.198Z,9.45
2017-11-08T10:09:06.147Z,9.29
2017-11-08T10:10:07.031Z,9.29
2017-11-08T10:11:06.130Z,9.27
2017-11-08T10:12:07.036Z,9.32
2017-11-08T10:13:06.107Z,9.30
2017-11-08T10:14:06.132Z,9.29
2017-11-08T10:15:07.094Z,9.34
2017-11-08T10:16:06.081Z,9.33
2017-11-08T10:17:07.032Z,9.37
2017-11-08T10:18:06.063Z,9.40
2017-11-08T10:19:06.055Z,9.40
2017-11-08T10:20:06.040Z,9.37
2017-11-08T10:21:06.035Z,9.44
2017-11-08T10:22:06.024Z,9.42
2017-11-08T10:23:13.662Z,9.40
2017-11-08T10:25:00.478Z,9.33
2017-11-08T10:26:00.374Z,9.36
2017-11-08T10:27:54.756Z,9.45
2017-11-08T10:28:54.717Z,9.37
2017-11-08T10:30:49.111Z,9.42
2017-11-08T10:31:49.654Z,9.41
2017-11-08T10:33:43.480Z,9.45
2017-11-08T10:34:43.434Z,9.41
2017-11-08T10:36:37.815Z,9.50
2017-11-08T10:37:37.781Z,9.54
2017-11-08T10:39:33.207Z,9.50
2017-11-08T10:40:32.136Z,9.50
2017-11-08T10:43:27.946Z,9.51
2017-11-08T10:45:22.407Z,9.60
2017-11-08T10:46:22.297Z,9.48
2017-11-08T10:48:16.685Z,9.47
2017-11-08T10:49:16.655Z,9.57
2017-11-08T10:51:11.042Z,9.48
2017-11-08T10:52:11.013Z,9.48
2017-11-08T10:54:14.056Z,9.47
2017-11-08T10:55:05.361Z,9.40
2017-11-08T10:56:13.991Z,9.41
2017-11-08T10:58:08.369Z,9.33
2017-11-08T10:59:08.538Z,9.42
2017-11-08T11:00:55.132Z,9.36
2017-11-08T11:02:02.689Z,9.37
2017-11-08T11:03:48.515Z,9.34
2017-11-08T11:04:57.382Z,9.47
2017-11-08T11:06:50.463Z,9.36
2017-11-08T11:07:49.431Z,9.40
2017-11-08T11:09:36.168Z,9.33
2017-11-08T11:10:36.122Z,9.33
2017-11-08T11:11:36.122Z,9.36
2017-11-08T11:12:36.111Z,9.33
2017-11-08T11:13:36.100Z,9.37
2017-11-08T11:14:36.090Z,9.37
2017-11-08T11:15:36.084Z,9.30
2017-11-08T11:16:36.076Z,9.30
2017-11-08T11:17:36.721Z,9.32
2017-11-08T11:18:36.060Z,9.30
2017-11-08T11:19:36.051Z,9.32
2017-11-08T11:20:36.050Z,9.27
2017-11-08T11:21:36.032Z,9.30
2017-11-08T11:22:36.020Z,9.33
2017-11-08T11:23:36.734Z,9.30
2017-11-08T11:24:36.019Z,9.33
2017-11-08T11:25:35.997Z,9.27
2017-11-08T11:26:35.991Z,9.29
2017-11-08T11:27:36.724Z,9.33
2017-11-08T11:28:36.730Z,9.33
2017-11-08T11:29:35.962Z,9.29
2017-11-08T11:30:35.960Z,9.30
2017-11-08T11:31:35.950Z,9.26
2017-11-08T11:32:35.953Z,9.36
2017-11-08T11:33:38.736Z,9.30
2017-11-08T11:34:36.739Z,9.36
2017-11-08T11:35:35.917Z,9.33
2017-11-08T11:36:35.898Z,9.36
2017-11-08T11:37:35.900Z,9.30
2017-11-08T11:38:35.886Z,9.33
2017-11-08T11:39:35.895Z,9.37
2017-11-08T11:40:35.858Z,9.36
2017-11-08T11:41:35.854Z,9.36
2017-11-08T11:42:36.737Z,9.34
2017-11-08T11:43:35.840Z,9.40
2017-11-08T11:44:35.838Z,9.33
2017-11-08T11:45:36.738Z,9.40
2017-11-08T11:46:35.829Z,9.34
2017-11-08T11:47:35.809Z,9.44
2017-11-08T11:48:35.801Z,9.34
2017-11-08T11:49:35.819Z,9.47
2017-11-08T11:50:35.785Z,9.32
2017-11-08T11:51:35.782Z,9.40
2017-11-08T11:52:35.767Z,9.37
2017-11-08T11:53:35.752Z,9.36
2017-11-08T11:54:35.742Z,9.27
2017-11-08T11:55:35.745Z,9.24
2017-11-08T11:56:35.725Z,9.27
2017-11-08T11:57:35.722Z,9.30
2017-11-08T11:58:35.710Z,9.29
2017-11-08T11:59:35.705Z,9.30
2017-11-08T12:00:35.696Z,9.29
2017-11-08T12:01:35.689Z,9.29
2017-11-08T12:02:35.685Z,9.30
2017-11-08T12:03:35.667Z,9.27
2017-11-08T12:04:35.658Z,9.27
2017-11-08T12:05:35.654Z,9.27
2017-11-08T12:06:35.654Z,9.24
2017-11-08T12:07:35.664Z,9.24
2017-11-08T12:08:35.633Z,9.26
2017-11-08T12:09:35.611Z,9.29
2017-11-08T12:10:35.603Z,9.29
2017-11-08T12:11:35.594Z,9.26
2017-11-08T12:12:35.598Z,9.19
2017-11-08T12:13:35.582Z,9.15
2017-11-08T12:14:35.570Z,9.16
2017-11-08T12:15:35.569Z,9.24
2017-11-08T12:16:56.560Z,9.14
2017-11-08T12:17:42.258Z,9.14
2017-11-08T12:18:37.908Z,9.22
2017-11-08T12:19:35.527Z,9.11
2017-11-08T12:20:35.519Z,9.14
2017-11-08T12:21:36.263Z,9.23
2017-11-08T12:22:35.503Z,9.15
2017-11-08T12:23:35.497Z,9.15
2017-11-08T12:24:35.487Z,9.12
2017-11-08T12:25:35.476Z,9.06
2017-11-08T12:26:35.469Z,9.15
2017-11-08T12:27:35.462Z,9.08
2017-11-08T12:28:35.452Z,9.12
2017-11-08T12:29:35.444Z,9.06
2017-11-08T12:30:35.426Z,9.12
2017-11-08T12:31:35.423Z,9.08
2017-11-08T12:32:35.414Z,9.11
2017-11-08T12:33:35.413Z,9.04
2017-11-08T12:34:35.396Z,9.03
2017-11-08T12:35:50.272Z,9.08
2017-11-08T12:36:35.375Z,9.09
2017-11-08T12:37:35.361Z,8.99
2017-11-08T12:38:35.362Z,9.08
2017-11-08T12:39:35.353Z,9.01
2017-11-08T12:40:35.365Z,9.03
2017-11-08T12:41:35.330Z,9.04
2017-11-08T12:42:35.326Z,9.04
2017-11-08T12:43:35.318Z,9.06
2017-11-08T12:44:35.307Z,9.06
2017-11-08T12:45:35.295Z,9.04
2017-11-08T12:46:35.299Z,9.15
2017-11-08T12:47:35.279Z,9.11
2017-11-08T12:48:35.273Z,9.14
2017-11-08T12:49:35.259Z,9.08
2017-11-08T12:50:35.252Z,9.14
2017-11-08T12:51:35.245Z,9.06
2017-11-08T12:52:35.237Z,9.11
2017-11-08T12:53:35.223Z,9.14
2017-11-08T12:54:35.217Z,9.11
2017-11-08T12:55:35.785Z,9.16
2017-11-08T12:56:35.199Z,9.15
2017-11-08T12:57:35.191Z,9.14
2017-11-08T12:58:35.183Z,9.08
2017-11-08T12:59:35.173Z,9.16
2017-11-08T13:00:35.224Z,9.12
2017-11-08T13:01:35.156Z,9.26
2017-11-08T13:02:35.148Z,9.12
2017-11-08T13:03:35.133Z,9.16
2017-11-08T13:04:35.130Z,9.09
2017-11-08T13:05:35.782Z,9.16
2017-11-08T13:06:35.126Z,9.19
2017-11-08T13:07:35.250Z,9.18
2017-11-08T13:08:35.291Z,9.12
2017-11-08T13:09:35.083Z,9.08
2017-11-08T13:10:35.074Z,9.04
2017-11-08T13:11:35.064Z,9.04
2017-11-08T13:12:35.058Z,9.11
2017-11-08T13:13:35.110Z,9.12
2017-11-08T13:14:35.145Z,9.14
2017-11-08T13:15:35.046Z,9.11
2017-11-08T13:16:35.029Z,9.08
2017-11-08T13:17:35.017Z,9.15
2017-11-08T13:18:35.000Z,9.22
2017-11-08T13:19:34.996Z,9.12
2017-11-08T13:20:34.992Z,9.24
2017-11-08T13:21:34.978Z,9.14
2017-11-08T13:22:34.964Z,9.22
2017-11-08T13:23:34.963Z,9.15
2017-11-08T13:24:34.942Z,9.12
2017-11-08T13:25:35.132Z,9.12
2017-11-08T13:26:34.938Z,9.08
2017-11-08T13:27:35.214Z,9.06
2017-11-08T13:28:34.909Z,9.06
2017-11-08T13:29:34.899Z,9.09
2017-11-08T13:30:34.902Z,9.04
2017-11-08T13:31:35.795Z,9.08
2017-11-08T13:32:34.874Z,9.09
2017-11-08T13:33:34.867Z,9.12